Time;durP1;ratioP1;P1;durP2;ratioP2;P2;SDS_P1;SDS_P2;PMS_P1;PMS_P2;Temp;Humidity;BMP_temperature;BMP_pressure;BME280_temperature;BME280_humidity;BME280_pressure;Samples;Min_cycle;Max_cycle;Signal;HPM_P1;HPM_P2
2023/08/22 00:00:42;;;;;;;8.70;7.80;;;22.80;99.90;;;;;;5121062;28;20232;-78
2023/08/22 00:03:07;;;;;;;8.60;7.80;;;22.80;99.90;;;;;;5120917;28;20185;-76
2023/08/22 00:05:33;;;;;;;8.07;7.38;;;22.80;99.90;;;;;;5121956;28;20278;-77
2023/08/22 00:08:05;;;;;;;9.07;8.20;;;22.80;99.90;;;;;;5122052;28;20169;-77
2023/08/22 00:10:35;;;;;;;8.60;7.67;;;22.80;99.90;;;;;;5119125;28;20540;-78
2023/08/22 00:13:04;;;;;;;8.75;8.05;;;22.70;99.90;;;;;;5119501;28;20182;-79
2023/08/22 00:15:30;;;;;;;9.03;8.20;;;22.70;99.90;;;;;;5135759;28;20180;-78
2023/08/22 00:17:55;;;;;;;9.02;8.23;;;22.70;99.90;;;;;;5123788;28;20208;-76
2023/08/22 00:20:22;;;;;;;8.63;7.93;;;22.70;99.90;;;;;;5118428;28;20574;-76
2023/08/22 00:22:48;;;;;;;8.77;7.95;;;22.70;99.90;;;;;;5118144;28;20320;-78
2023/08/22 00:25:14;;;;;;;8.68;7.85;;;22.80;99.90;;;;;;5100202;28;20221;-78
2023/08/22 00:27:40;;;;;;;10.38;7.68;;;22.70;99.90;;;;;;5118351;28;20543;-77
2023/08/22 00:30:07;;;;;;;10.73;8.33;;;22.70;99.90;;;;;;5122301;28;20178;-77
2023/08/22 00:32:33;;;;;;;9.03;8.07;;;22.70;99.90;;;;;;5101218;28;20630;-77
2023/08/22 00:34:59;;;;;;;8.57;7.50;;;22.70;99.90;;;;;;5099831;28;20201;-78
2023/08/22 00:37:26;;;;;;;10.37;8.40;;;22.60;99.90;;;;;;5117764;28;20586;-77
2023/08/22 00:39:52;;;;;;;8.70;8.00;;;22.60;99.90;;;;;;5118380;28;20178;-78
2023/08/22 00:42:18;;;;;;;8.90;8.10;;;22.60;99.90;;;;;;5118427;28;20216;-78
2023/08/22 00:44:44;;;;;;;9.83;8.17;;;22.60;99.90;;;;;;5117997;28;20218;-77
2023/08/22 00:47:10;;;;;;;9.90;8.33;;;22.60;99.90;;;;;;5117807;28;20184;-81
2023/08/22 00:49:37;;;;;;;8.87;8.13;;;22.50;99.90;;;;;;5117904;28;20189;-77
2023/08/22 00:52:03;;;;;;;8.23;7.60;;;22.50;99.90;;;;;;5118451;28;20585;-80
2023/08/22 00:54:30;;;;;;;8.37;7.53;;;22.60;99.90;;;;;;5119193;28;20178;-78
2023/08/22 00:56:57;;;;;;;8.30;7.60;;;22.60;99.90;;;;;;5129623;28;20150;-79
2023/08/22 00:59:27;;;;;;;8.93;8.13;;;22.60;99.90;;;;;;5130790;28;20173;-78
2023/08/22 01:01:54;;;;;;;11.40;8.70;;;22.60;99.90;;;;;;5141224;28;20208;-77
2023/08/22 01:04:21;;;;;;;8.68;7.88;;;22.60;99.90;;;;;;5119031;28;20259;-77
2023/08/22 01:06:56;;;;;;;9.67;8.40;;;22.50;99.90;;;;;;5117523;28;20173;-78
2023/08/22 01:09:43;;;;;;;8.75;8.05;;;22.50;99.90;;;;;;5135927;28;20182;-80
2023/08/22 01:12:47;;;;;;;9.20;8.40;;;22.50;99.90;;;;;;5103119;28;20181;-77
2023/08/22 01:15:25;;;;;;;9.37;8.27;;;22.50;99.90;;;;;;5117439;28;20169;-79
2023/08/22 01:17:56;;;;;;;8.97;7.87;;;22.50;99.90;;;;;;5117760;28;20174;-79
2023/08/22 01:20:24;;;;;;;10.63;8.20;;;22.50;99.90;;;;;;5115486;28;20532;-77
2023/08/22 01:22:50;;;;;;;9.63;8.73;;;22.50;99.90;;;;;;5117403;28;20221;-79
2023/08/22 01:25:16;;;;;;;8.73;7.93;;;22.50;99.90;;;;;;5117004;28;20210;-78
2023/08/22 01:28:14;;;;;;;8.83;8.03;;;22.40;99.90;;;;;;5116994;28;20182;-77
2023/08/22 01:31:02;;;;;;;8.53;7.77;;;22.40;99.90;;;;;;5117464;28;20162;-78
2023/08/22 01:33:36;;;;;;;9.37;8.37;;;22.40;99.90;;;;;;5117156;28;20178;-79
2023/08/22 01:36:03;;;;;;;9.00;8.13;;;22.30;99.90;;;;;;5117012;28;20251;-79
2023/08/22 01:38:30;;;;;;;9.00;8.20;;;22.30;99.90;;;;;;5117219;28;20734;-76
2023/08/22 01:40:58;;;;;;;9.50;8.50;;;22.30;99.90;;;;;;5116944;28;20632;-78
2023/08/22 01:43:24;;;;;;;9.00;8.10;;;22.30;99.90;;;;;;5121325;28;20166;-77
2023/08/22 01:45:50;;;;;;;8.90;8.03;;;22.30;99.90;;;;;;5118731;28;20234;-77
2023/08/22 01:48:16;;;;;;;9.23;8.23;;;22.30;99.90;;;;;;5098826;28;20181;-78
2023/08/22 01:50:42;;;;;;;9.17;8.20;;;22.20;99.90;;;;;;5117339;28;20178;-78
2023/08/22 01:53:07;;;;;;;9.43;8.63;;;22.20;99.90;;;;;;5122076;28;20186;-77
2023/08/22 01:55:33;;;;;;;9.63;8.73;;;22.20;99.90;;;;;;5117627;28;20188;-78
2023/08/22 01:57:59;;;;;;;8.53;7.73;;;22.20;99.90;;;;;;5116689;28;20514;-77
2023/08/22 02:00:25;;;;;;;9.43;8.52;;;22.10;99.90;;;;;;5128959;28;20169;-76
2023/08/22 02:02:50;;;;;;;9.45;8.65;;;22.20;99.90;;;;;;5130251;28;20180;-76
2023/08/22 02:05:16;;;;;;;12.60;8.70;;;22.10;99.90;;;;;;5118271;28;20304;-79
2023/08/22 02:07:42;;;;;;;9.00;8.20;;;22.10;99.90;;;;;;5117997;28;20178;-77
2023/08/22 02:10:08;;;;;;;9.27;8.37;;;22.10;99.90;;;;;;5115910;28;20185;-76
2023/08/22 02:12:34;;;;;;;11.00;8.80;;;22.10;99.90;;;;;;5116360;28;20247;-77
2023/08/22 02:14:59;;;;;;;9.80;8.80;;;22.10;99.90;;;;;;5115719;28;20256;-77
2023/08/22 02:17:25;;;;;;;8.98;7.95;;;22.10;99.90;;;;;;5116139;28;20277;-78
2023/08/22 02:19:51;;;;;;;9.20;8.30;;;22.10;99.90;;;;;;5116855;28;20185;-79
2023/08/22 02:22:17;;;;;;;10.25;8.52;;;22.10;99.90;;;;;;5115681;28;20232;-78
2023/08/22 02:24:42;;;;;;;8.90;8.00;;;22.00;99.90;;;;;;5116125;28;20238;-78
2023/08/22 02:27:09;;;;;;;11.60;8.55;;;22.00;99.90;;;;;;5115794;28;20692;-78
2023/08/22 02:29:35;;;;;;;9.40;8.50;;;22.00;99.90;;;;;;5114383;28;20182;-77
2023/08/22 02:32:01;;;;;;;9.33;8.50;;;22.00;99.90;;;;;;5115758;28;20184;-77
2023/08/22 02:34:27;;;;;;;9.07;8.23;;;22.00;99.90;;;;;;5115871;28;20192;-79
2023/08/22 02:36:53;;;;;;;9.73;8.07;;;21.90;99.90;;;;;;5130236;28;20174;-77
2023/08/22 02:39:18;;;;;;;12.43;8.40;;;22.00;99.90;;;;;;5133811;28;20190;-79
2023/08/22 02:41:44;;;;;;;9.43;8.37;;;21.90;99.90;;;;;;5116816;28;20182;-77
2023/08/22 02:44:12;;;;;;;9.03;8.23;;;21.90;99.90;;;;;;5117357;28;20198;-77
2023/08/22 02:46:37;;;;;;;9.03;8.23;;;21.90;99.90;;;;;;5116092;28;20261;-77
2023/08/22 02:49:03;;;;;;;9.17;8.27;;;21.90;99.90;;;;;;5137770;28;20174;-76
2023/08/22 02:51:31;;;;;;;9.30;8.40;;;21.80;99.90;;;;;;5118828;28;20285;-76
2023/08/22 02:53:56;;;;;;;9.37;8.40;;;21.80;99.90;;;;;;5118129;28;20167;-76
2023/08/22 02:56:22;;;;;;;11.10;8.80;;;21.70;99.90;;;;;;5106960;28;20652;-77
2023/08/22 02:58:48;;;;;;;9.30;8.40;;;21.70;99.90;;;;;;5095521;28;20652;-78
2023/08/22 03:01:16;;;;;;;9.57;8.73;;;21.70;99.90;;;;;;5095795;28;20183;-76
2023/08/22 03:03:43;;;;;;;11.03;9.53;;;21.70;99.90;;;;;;5095110;28;20656;-76
2023/08/22 03:06:09;;;;;;;9.57;8.67;;;21.60;99.90;;;;;;5096386;28;20208;-78
2023/08/22 03:08:35;;;;;;;9.60;8.60;;;21.70;99.90;;;;;;5096237;28;20178;-76
2023/08/22 03:11:01;;;;;;;9.30;8.30;;;21.60;99.90;;;;;;5095392;28;20236;-77
2023/08/22 03:13:30;;;;;;;10.40;9.40;;;21.60;99.90;;;;;;5096449;28;20174;-77
2023/08/22 03:16:00;;;;;;;10.17;9.10;;;21.60;99.90;;;;;;5099133;28;20274;-77
2023/08/22 03:18:26;;;;;;;11.83;8.43;;;21.60;99.90;;;;;;5099434;28;20186;-75
2023/08/22 03:20:58;;;;;;;9.77;8.87;;;21.50;99.90;;;;;;5114266;28;20214;-77
2023/08/22 03:23:24;;;;;;;11.00;9.70;;;21.50;99.90;;;;;;5118527;28;20552;-78
2023/08/22 03:26:00;;;;;;;9.93;9.03;;;21.50;99.90;;;;;;5118685;28;20226;-76
2023/08/22 03:28:26;;;;;;;12.27;9.33;;;21.60;99.90;;;;;;5117471;28;20260;-77
2023/08/22 03:31:03;;;;;;;9.57;8.67;;;21.50;99.90;;;;;;5116840;28;20625;-76
2023/08/22 03:33:29;;;;;;;9.10;8.17;;;21.50;99.90;;;;;;5114918;28;20188;-76
2023/08/22 03:35:56;;;;;;;9.57;8.67;;;21.40;99.90;;;;;;5114700;28;20327;-78
2023/08/22 03:38:22;;;;;;;9.40;8.50;;;21.50;99.90;;;;;;5116079;28;20188;-76
2023/08/22 03:40:48;;;;;;;10.17;9.17;;;21.40;99.90;;;;;;5115352;28;20206;-79
2023/08/22 03:43:19;;;;;;;9.57;8.77;;;21.40;99.90;;;;;;5114919;28;20262;-77
2023/08/22 03:45:45;;;;;;;10.63;9.00;;;21.30;99.90;;;;;;5115405;28;20213;-77
2023/08/22 03:48:11;;;;;;;9.87;8.87;;;21.30;99.90;;;;;;5118845;28;20239;-77
2023/08/22 03:50:42;;;;;;;10.20;9.00;;;21.30;99.90;;;;;;5134654;28;20178;-78
2023/08/22 03:53:08;;;;;;;9.90;8.90;;;21.30;99.90;;;;;;5122827;28;20170;-79
2023/08/22 03:55:34;;;;;;;9.60;8.60;;;21.30;99.90;;;;;;5115267;28;20177;-75
2023/08/22 03:58:01;;;;;;;9.60;8.80;;;21.20;99.90;;;;;;5114776;28;20180;-77
2023/08/22 04:00:27;;;;;;;10.47;9.47;;;21.20;99.90;;;;;;5113814;28;20312;-75
2023/08/22 04:02:57;;;;;;;11.30;9.70;;;21.10;99.90;;;;;;5114069;28;20242;-79
2023/08/22 04:05:24;;;;;;;11.00;9.90;;;21.10;99.90;;;;;;5096639;28;20262;-76
2023/08/22 04:07:50;;;;;;;11.43;10.33;;;21.10;99.90;;;;;;5115081;28;20174;-77
2023/08/22 04:10:17;;;;;;;10.70;9.70;;;21.10;99.90;;;;;;5114100;28;20188;-77
2023/08/22 04:12:43;;;;;;;11.70;10.37;;;21.10;99.90;;;;;;5114536;28;20178;-77
2023/08/22 04:15:11;;;;;;;11.00;9.87;;;21.00;99.90;;;;;;5120811;28;20194;-80
2023/08/22 04:17:41;;;;;;;12.37;11.17;;;21.00;99.90;;;;;;5128877;28;20644;-76
2023/08/22 04:20:11;;;;;;;13.27;11.90;;;20.90;99.90;;;;;;5115201;28;20173;-75
2023/08/22 04:22:41;;;;;;;11.97;10.90;;;21.00;99.90;;;;;;5114295;28;20366;-78
2023/08/22 04:25:08;;;;;;;12.43;11.23;;;21.00;99.90;;;;;;5114477;28;20663;-78
2023/08/22 04:27:34;;;;;;;12.50;10.83;;;21.00;99.90;;;;;;5120605;28;20177;-78
2023/08/22 04:30:01;;;;;;;11.67;10.53;;;20.90;99.90;;;;;;5131181;28;20257;-78
2023/08/22 04:32:27;;;;;;;12.60;11.40;;;20.90;99.90;;;;;;5122321;28;20172;-78
2023/08/22 04:34:52;;;;;;;14.77;10.83;;;20.90;99.90;;;;;;5119101;28;20276;-77
2023/08/22 04:37:19;;;;;;;11.17;10.10;;;20.90;99.90;;;;;;5119381;28;20186;-76
2023/08/22 04:39:44;;;;;;;12.07;10.97;;;20.90;99.90;;;;;;5125054;28;20178;-80
2023/08/22 04:42:10;;;;;;;11.80;10.73;;;21.00;99.90;;;;;;5119892;28;20180;-78
2023/08/22 04:44:36;;;;;;;12.17;10.87;;;21.00;99.90;;;;;;5118190;28;20274;-78
2023/08/22 04:47:02;;;;;;;12.00;10.70;;;20.90;99.90;;;;;;5129928;28;20174;-78
2023/08/22 04:49:28;;;;;;;15.63;11.30;;;20.90;99.90;;;;;;5126723;28;20537;-77
2023/08/22 04:51:53;;;;;;;11.70;9.67;;;20.90;99.90;;;;;;5118793;28;20189;-77
2023/08/22 04:54:19;;;;;;;12.07;10.47;;;21.00;99.90;;;;;;5118370;28;20256;-76
2023/08/22 04:56:45;;;;;;;12.40;10.73;;;20.90;99.90;;;;;;5126570;28;20199;-77
2023/08/22 04:59:11;;;;;;;14.67;10.97;;;20.90;99.90;;;;;;5123696;28;20294;-76
2023/08/22 05:01:36;;;;;;;14.00;11.73;;;20.90;99.90;;;;;;5118131;28;20250;-77
2023/08/22 05:04:02;;;;;;;11.93;10.73;;;20.90;99.90;;;;;;5117790;28;20174;-76
2023/08/22 05:06:28;;;;;;;11.37;10.13;;;20.90;99.90;;;;;;5116960;28;20193;-77
2023/08/22 05:08:54;;;;;;;12.73;10.90;;;20.90;99.90;;;;;;5118307;28;20174;-79
2023/08/22 05:11:19;;;;;;;16.33;10.70;;;21.00;99.90;;;;;;5118016;28;20181;-78
2023/08/22 05:13:45;;;;;;;13.80;10.60;;;21.00;99.90;;;;;;5118585;28;20227;-79
2023/08/22 05:16:11;;;;;;;13.30;10.83;;;21.10;99.90;;;;;;5117770;28;20581;-76
2023/08/22 05:18:37;;;;;;;11.97;10.73;;;21.10;99.90;;;;;;5118286;28;20189;-76
2023/08/22 05:21:04;;;;;;;12.00;10.50;;;21.10;99.90;;;;;;5118364;28;20301;-78
2023/08/22 05:23:30;;;;;;;14.37;10.97;;;21.10;99.90;;;;;;5117826;28;20189;-78
2023/08/22 05:25:56;;;;;;;11.73;10.27;;;21.20;99.90;;;;;;5117473;28;20653;-78
2023/08/22 05:28:22;;;;;;;14.37;10.27;;;21.30;99.90;;;;;;5116632;28;20174;-77
2023/08/22 05:30:47;;;;;;;10.17;8.70;;;21.40;99.90;;;;;;5115384;28;20196;-77
2023/08/22 05:33:13;;;;;;;10.30;9.07;;;21.50;99.90;;;;;;5117492;28;20174;-77
2023/08/22 05:35:39;;;;;;;13.77;9.00;;;21.50;99.90;;;;;;5120167;28;20182;-77
2023/08/22 05:38:05;;;;;;;9.63;8.63;;;21.60;99.90;;;;;;5128757;28;20204;-78
2023/08/22 05:40:30;;;;;;;9.87;8.97;;;21.80;99.90;;;;;;5118950;28;20186;-77
2023/08/22 05:42:56;;;;;;;9.80;8.80;;;21.90;99.90;;;;;;5120383;28;20265;-77
2023/08/22 05:45:22;;;;;;;13.50;8.23;;;22.00;99.90;;;;;;5118959;28;20240;-77
2023/08/22 05:47:48;;;;;;;9.93;8.53;;;22.00;99.90;;;;;;5118723;28;20178;-78
2023/08/22 05:50:13;;;;;;;9.03;8.13;;;22.10;99.90;;;;;;5115821;28;20194;-78
2023/08/22 05:52:39;;;;;;;10.77;8.90;;;22.20;99.90;;;;;;5098280;28;20227;-77
2023/08/22 05:55:06;;;;;;;10.40;9.00;;;22.40;99.90;;;;;;5121650;28;20177;-77
2023/08/22 05:57:32;;;;;;;9.20;8.23;;;22.40;99.90;;;;;;5137797;28;20190;-77
2023/08/22 05:59:59;;;;;;;9.40;8.50;;;22.50;99.90;;;;;;5122551;28;20628;-79
2023/08/22 06:02:25;;;;;;;11.03;8.40;;;22.60;99.90;;;;;;5117213;28;20177;-77
2023/08/22 06:04:51;;;;;;;9.60;8.60;;;22.60;99.90;;;;;;5120427;28;20233;-76
2023/08/22 06:07:17;;;;;;;10.97;8.10;;;22.70;99.90;;;;;;5130198;28;20215;-77
2023/08/22 06:09:44;;;;;;;9.30;8.13;;;22.80;99.90;;;;;;5123462;28;20206;-79
2023/08/22 06:12:11;;;;;;;10.90;8.55;;;22.90;99.90;;;;;;5117134;28;20239;-77
2023/08/22 06:14:38;;;;;;;12.38;8.55;;;23.00;99.90;;;;;;5115987;28;20217;-77
2023/08/22 06:17:03;;;;;;;10.23;8.67;;;23.10;99.90;;;;;;5114962;28;20551;-77
2023/08/22 06:19:30;;;;;;;9.40;8.47;;;23.10;99.90;;;;;;5115723;28;20166;-77
2023/08/22 06:21:56;;;;;;;8.85;7.95;;;23.20;99.90;;;;;;5094590;28;20245;-77
2023/08/22 06:24:24;;;;;;;9.82;8.68;;;23.30;99.90;;;;;;5110675;28;21064;-75
2023/08/22 06:26:49;;;;;;;9.27;8.37;;;23.40;99.90;;;;;;5095442;27;20183;-78
2023/08/22 06:29:16;;;;;;;10.65;8.43;;;23.40;99.90;;;;;;5095797;28;20189;-76
2023/08/22 06:31:42;;;;;;;10.55;8.27;;;23.40;99.90;;;;;;5095522;28;20661;-77
2023/08/22 06:34:07;;;;;;;9.30;8.45;;;23.50;99.90;;;;;;5094987;28;20182;-78
2023/08/22 06:36:33;;;;;;;9.77;8.17;;;23.50;99.90;;;;;;5098184;28;20258;-75
2023/08/22 06:39:00;;;;;;;10.25;8.68;;;23.50;99.90;;;;;;5104361;28;20189;-77
2023/08/22 06:41:27;;;;;;;9.02;8.13;;;23.60;99.90;;;;;;5115507;28;20179;-77
2023/08/22 06:43:53;;;;;;;8.80;8.00;;;23.60;99.90;;;;;;5095876;28;20217;-77
2023/08/22 06:46:21;;;;;;;10.52;8.27;;;23.70;99.90;;;;;;5095124;28;20210;-79
2023/08/22 06:48:48;;;;;;;9.38;8.48;;;23.80;99.90;;;;;;5111247;28;20217;-77
2023/08/22 06:51:14;;;;;;;10.80;8.35;;;23.80;99.90;;;;;;5095376;28;20276;-78
2023/08/22 06:53:39;;;;;;;9.73;8.18;;;23.90;99.90;;;;;;5094955;28;20171;-77
2023/08/22 06:56:05;;;;;;;15.43;8.75;;;23.90;99.90;;;;;;5094915;28;20223;-76
2023/08/22 06:58:31;;;;;;;17.08;10.18;;;24.00;99.90;;;;;;5095602;28;20263;-76
2023/08/22 07:00:58;;;;;;;11.45;9.70;;;24.10;99.90;;;;;;5095895;28;20174;-77
2023/08/22 07:03:24;;;;;;;10.73;8.15;;;24.10;99.90;;;;;;5094886;28;20183;-78
2023/08/22 07:05:52;;;;;;;9.40;8.50;;;24.20;99.90;;;;;;5095085;28;20577;-77
2023/08/22 07:08:19;;;;;;;11.35;8.77;;;24.30;99.90;;;;;;5095148;28;20181;-76
2023/08/22 07:10:44;;;;;;;8.73;7.72;;;24.40;99.90;;;;;;5095115;28;20228;-77
2023/08/22 07:13:10;;;;;;;8.90;8.07;;;24.40;99.90;;;;;;5110407;28;20183;-77
2023/08/22 07:15:36;;;;;;;9.65;8.10;;;24.50;99.90;;;;;;5094916;28;20179;-78
2023/08/22 07:18:02;;;;;;;10.80;7.50;;;24.60;99.90;;;;;;5110498;28;20174;-77
2023/08/22 07:20:28;;;;;;;10.07;8.15;;;24.60;99.90;;;;;;5094842;28;20645;-76
2023/08/22 07:22:54;;;;;;;9.07;8.18;;;24.70;99.90;;;;;;5113829;28;20258;-76
2023/08/22 07:25:20;;;;;;;8.85;7.72;;;24.70;99.90;;;;;;5122732;28;20734;-79
2023/08/22 07:27:45;;;;;;;8.82;7.95;;;24.80;99.90;;;;;;5122618;28;20174;-77
2023/08/22 07:30:12;;;;;;;8.65;7.82;;;24.90;99.90;;;;;;5117172;28;20170;-76
2023/08/22 07:32:37;;;;;;;10.75;8.40;;;25.00;99.90;;;;;;5117793;28;20196;-76
2023/08/22 07:35:03;;;;;;;8.77;7.82;;;25.00;99.90;;;;;;5131282;28;20170;-77
2023/08/22 07:37:29;;;;;;;10.15;7.78;;;25.10;99.90;;;;;;5117236;28;20173;-77
2023/08/22 07:39:56;;;;;;;9.52;7.65;;;25.20;99.90;;;;;;5114928;28;20174;-78
2023/08/22 07:42:22;;;;;;;9.15;7.70;;;25.30;99.90;;;;;;5114726;28;20173;-76
2023/08/22 07:44:47;;;;;;;9.15;7.50;;;25.40;99.90;;;;;;5114320;28;20205;-78
2023/08/22 07:47:13;;;;;;;8.82;7.85;;;25.50;99.90;;;;;;5132631;28;20189;-76
2023/08/22 07:49:39;;;;;;;8.38;7.57;;;25.60;99.90;;;;;;5118232;28;20186;-77
2023/08/22 07:52:05;;;;;;;9.20;7.70;;;25.60;99.90;;;;;;5114652;28;20174;-76
2023/08/22 07:54:32;;;;;;;8.75;7.90;;;25.70;99.90;;;;;;5114264;28;20185;-77
2023/08/22 07:56:58;;;;;;;8.77;8.00;;;25.70;99.90;;;;;;5115748;28;20185;-76
2023/08/22 07:59:23;;;;;;;9.30;7.47;;;25.70;99.90;;;;;;5118454;28;20210;-76
2023/08/22 08:01:49;;;;;;;9.48;8.40;;;25.70;99.90;;;;;;5117116;28;20659;-76
2023/08/22 08:04:16;;;;;;;11.43;7.82;;;25.80;99.90;;;;;;5115291;28;20194;-79
2023/08/22 08:06:42;;;;;;;11.50;9.38;;;25.90;99.90;;;;;;5113575;28;20202;-76
2023/08/22 08:09:08;;;;;;;12.98;9.43;;;26.00;99.90;;;;;;5117506;28;20678;-76
2023/08/22 08:11:34;;;;;;;10.45;9.25;;;26.20;99.90;;;;;;5099729;28;20663;-75
2023/08/22 08:14:01;;;;;;;10.43;9.32;;;26.30;99.90;;;;;;5118690;28;20177;-77
2023/08/22 08:16:27;;;;;;;14.43;9.48;;;26.40;99.90;;;;;;5122786;28;20182;-76
2023/08/22 08:18:53;;;;;;;13.95;9.50;;;26.40;99.90;;;;;;5099455;28;20308;-78
2023/08/22 08:21:19;;;;;;;11.80;9.75;;;26.50;99.90;;;;;;5099441;28;20378;-77
2023/08/22 08:24:22;;;;;;;11.35;9.45;;;26.50;99.90;;;;;;5099340;28;20174;-78
2023/08/22 08:26:48;;;;;;;10.70;9.15;;;26.50;99.90;;;;;;5100013;28;20189;-75
2023/08/22 08:29:14;;;;;;;10.98;9.40;;;26.60;99.90;;;;;;5123922;28;20181;-77
2023/08/22 08:31:39;;;;;;;13.68;9.68;;;26.70;99.90;;;;;;5136698;28;20181;-76
2023/08/22 08:34:05;;;;;;;11.98;10.00;;;26.70;99.90;;;;;;5140252;28;20170;-78
2023/08/22 08:36:31;;;;;;;11.48;9.32;;;26.80;99.90;;;;;;5126483;28;20221;-78
2023/08/22 08:38:57;;;;;;;15.85;9.65;;;26.80;99.90;;;;;;5118034;28;20696;-78
2023/08/22 08:41:23;;;;;;;11.35;9.20;;;26.90;99.90;;;;;;5118273;28;20269;-75
2023/08/22 08:43:49;;;;;;;11.98;9.60;;;26.90;99.90;;;;;;5117124;28;20181;-77
2023/08/22 08:46:15;;;;;;;17.10;9.27;;;27.00;99.90;;;;;;5118586;28;20213;-75
2023/08/22 08:48:44;;;;;;;10.13;8.77;;;27.00;99.90;;;;;;5128979;28;20181;-77
2023/08/22 08:51:10;;;;;;;11.35;8.75;;;27.00;99.90;;;;;;5133407;28;20166;-78
2023/08/22 08:53:37;;;;;;;9.57;8.63;;;27.00;99.90;;;;;;5136458;28;20237;-77
2023/08/22 08:56:06;;;;;;;11.77;8.80;;;27.10;99.90;;;;;;5136688;28;20177;-77
2023/08/22 08:58:32;;;;;;;9.40;8.40;;;27.20;99.90;;;;;;5138474;28;20165;-75
2023/08/22 09:00:59;;;;;;;8.50;7.80;;;27.30;99.90;;;;;;5127119;28;20237;-77
2023/08/22 09:03:25;;;;;;;11.48;8.32;;;27.40;99.90;;;;;;5140465;28;20166;-78
2023/08/22 09:05:51;;;;;;;11.35;8.52;;;27.50;99.90;;;;;;5130527;28;20197;-77
2023/08/22 09:08:18;;;;;;;9.25;8.35;;;27.50;99.90;;;;;;5140880;28;20166;-78
2023/08/22 09:10:53;;;;;;;11.18;7.85;;;27.50;99.90;;;;;;5137716;28;20185;-76
2023/08/22 09:13:27;;;;;;;9.00;8.07;;;27.50;99.90;;;;;;5138081;28;20174;-77
2023/08/22 09:16:02;;;;;;;10.43;8.20;;;27.60;99.90;;;;;;5138629;28;20174;-77
2023/08/22 09:18:28;;;;;;;8.15;7.25;;;27.60;99.90;;;;;;5118806;28;20173;-75
2023/08/22 09:21:03;;;;;;;8.55;7.75;;;27.60;99.90;;;;;;5121810;28;20216;-77
2023/08/22 09:23:30;;;;;;;9.55;7.97;;;27.60;99.90;;;;;;5138435;28;20603;-76
2023/08/22 09:25:56;;;;;;;9.30;8.38;;;27.60;99.90;;;;;;5136139;28;20197;-78
2023/08/22 09:28:22;;;;;;;9.55;8.65;;;27.60;99.90;;;;;;5128869;28;20184;-80
2023/08/22 09:30:53;;;;;;;9.43;8.35;;;27.60;99.90;;;;;;5123792;28;20680;-78
2023/08/22 09:33:19;;;;;;;10.23;9.25;;;27.60;99.90;;;;;;5122643;28;20154;-79
2023/08/22 09:35:46;;;;;;;8.13;7.32;;;27.70;99.90;;;;;;5120063;28;20178;-77
2023/08/22 09:38:12;;;;;;;8.60;7.60;;;27.90;99.90;;;;;;5118665;28;20182;-78
2023/08/22 09:40:55;;;;;;;9.75;7.78;;;27.90;99.90;;;;;;5119009;28;20170;-77
2023/08/22 09:43:22;;;;;;;8.15;7.35;;;28.00;99.90;;;;;;5117632;28;20705;-79
2023/08/22 09:45:50;;;;;;;8.48;7.45;;;28.10;99.90;;;;;;5116431;28;20216;-78
2023/08/22 09:48:24;;;;;;;8.13;7.32;;;28.10;99.90;;;;;;5117243;28;20256;-79
2023/08/22 09:50:56;;;;;;;8.20;7.50;;;28.20;99.90;;;;;;5117481;28;20202;-78
2023/08/22 09:53:23;;;;;;;8.65;7.70;;;28.20;99.90;;;;;;5127735;28;20150;-76
2023/08/22 09:55:52;;;;;;;8.25;7.40;;;28.30;99.90;;;;;;5120849;28;20181;-76
2023/08/22 09:58:19;;;;;;;8.73;7.70;;;28.40;99.90;;;;;;5116599;28;20192;-77
2023/08/22 10:00:46;;;;;;;8.27;7.45;;;28.40;99.90;;;;;;5116227;28;20213;-78
2023/08/22 10:03:13;;;;;;;8.13;7.45;;;28.40;99.90;;;;;;5097084;28;20182;-78
2023/08/22 10:05:41;;;;;;;8.02;7.22;;;28.40;99.90;;;;;;5115345;28;20214;-77
2023/08/22 10:08:07;;;;;;;7.90;7.30;;;28.50;99.90;;;;;;5126086;28;20310;-79
2023/08/22 10:10:33;;;;;;;8.02;7.22;;;28.60;99.90;;;;;;5123459;28;20205;-77
2023/08/22 10:13:02;;;;;;;10.23;8.32;;;28.70;99.90;;;;;;5116596;28;20196;-78
2023/08/22 10:15:29;;;;;;;8.25;7.55;;;28.70;99.90;;;;;;5124010;28;20178;-77
2023/08/22 10:17:56;;;;;;;8.60;7.70;;;28.80;99.90;;;;;;5119174;28;20231;-77
2023/08/22 10:20:22;;;;;;;8.48;7.68;;;28.90;99.90;;;;;;5118293;28;20247;-79
2023/08/22 10:22:47;;;;;;;7.78;7.07;;;28.90;99.90;;;;;;5115468;28;20222;-78
2023/08/22 10:25:13;;;;;;;7.68;7.07;;;28.90;99.90;;;;;;5103768;28;20217;-78
2023/08/22 10:27:45;;;;;;;7.90;7.18;;;29.00;99.90;;;;;;5121855;28;20249;-78
2023/08/22 10:30:14;;;;;;;8.00;7.30;;;29.10;99.90;;;;;;5122881;28;20170;-76
2023/08/22 10:33:02;;;;;;;9.85;7.97;;;29.10;99.90;;;;;;5116854;28;20224;-78
2023/08/22 10:35:28;;;;;;;8.25;7.55;;;29.10;99.90;;;;;;5115906;28;20166;-77
2023/08/22 10:37:55;;;;;;;7.80;7.10;;;29.20;99.90;;;;;;5116661;28;20252;-79
2023/08/22 10:40:28;;;;;;;7.68;6.97;;;29.20;99.90;;;;;;5115124;28;20170;-78
2023/08/22 10:43:09;;;;;;;7.38;6.53;;;29.20;99.90;;;;;;5114945;28;20159;-76
2023/08/22 10:45:51;;;;;;;6.90;6.30;;;29.20;99.90;;;;;;5114799;28;20239;-78
2023/08/22 10:48:18;;;;;;;7.10;6.50;;;29.20;99.90;;;;;;5114800;28;20174;-77
2023/08/22 10:50:46;;;;;;;8.18;7.38;;;29.30;99.90;;;;;;5115344;28;20170;-78
2023/08/22 10:53:22;;;;;;;6.45;5.95;;;29.30;99.90;;;;;;5119835;28;20181;-77
2023/08/22 10:55:49;;;;;;;6.75;6.18;;;29.40;99.90;;;;;;5125424;28;20296;-79
2023/08/22 10:58:35;;;;;;;6.63;6.13;;;29.50;99.90;;;;;;5117626;28;20231;-80
2023/08/22 11:01:07;;;;;;;7.30;6.60;;;29.60;99.90;;;;;;5127356;28;20189;-78
2023/08/22 11:03:33;;;;;;;5.63;5.20;;;29.50;99.90;;;;;;5097179;28;20184;-77
2023/08/22 11:05:59;;;;;;;6.47;5.88;;;29.60;99.90;;;;;;5115877;28;20225;-79
2023/08/22 11:08:25;;;;;;;6.40;5.90;;;29.60;99.90;;;;;;5120226;28;20177;-78
2023/08/22 11:10:52;;;;;;;5.80;5.30;;;29.70;99.90;;;;;;5114337;28;20177;-78
2023/08/22 11:13:18;;;;;;;6.10;5.60;;;29.70;99.90;;;;;;5114475;28;20174;-78
2023/08/22 11:15:49;;;;;;;5.38;4.97;;;29.70;99.90;;;;;;5114492;28;20185;-76
2023/08/22 11:18:15;;;;;;;5.25;4.88;;;29.70;99.90;;;;;;5114550;28;20506;-78
2023/08/22 11:20:42;;;;;;;6.55;5.20;;;29.60;99.90;;;;;;5113981;28;20257;-79
2023/08/22 11:23:08;;;;;;;5.38;5.07;;;29.60;99.90;;;;;;5114101;28;20185;-77
2023/08/22 11:25:36;;;;;;;5.45;4.95;;;29.60;99.90;;;;;;5114308;28;20591;-76
2023/08/22 11:28:03;;;;;;;5.47;5.07;;;29.60;99.90;;;;;;5115496;28;20174;-78
2023/08/22 11:30:29;;;;;;;5.80;5.07;;;29.60;99.90;;;;;;5117302;28;20190;-78
2023/08/22 11:32:55;;;;;;;5.38;4.90;;;29.70;99.80;;;;;;5113973;28;20641;-78
2023/08/22 11:35:21;;;;;;;4.93;4.63;;;29.70;99.80;;;;;;5114132;28;20177;-77
2023/08/22 11:37:46;;;;;;;5.50;5.10;;;29.70;99.80;;;;;;5114768;28;20181;-77
2023/08/22 11:40:16;;;;;;;4.97;4.63;;;29.70;99.60;;;;;;5116252;28;20244;-79
2023/08/22 11:42:42;;;;;;;5.40;4.90;;;29.90;99.80;;;;;;5112953;28;20640;-78
2023/08/22 11:45:13;;;;;;;5.70;4.68;;;29.90;99.50;;;;;;5116496;28;20679;-79
2023/08/22 11:47:42;;;;;;;5.65;4.65;;;30.00;99.30;;;;;;5116035;28;20168;-77
2023/08/22 11:50:24;;;;;;;5.53;4.97;;;30.00;99.30;;;;;;5114964;28;20178;-78
2023/08/22 11:52:55;;;;;;;4.72;4.43;;;30.00;99.60;;;;;;5113937;28;20178;-78
2023/08/22 11:55:28;;;;;;;5.50;5.10;;;30.10;99.10;;;;;;5116148;28;20197;-77
2023/08/22 11:58:01;;;;;;;5.15;4.75;;;30.10;99.80;;;;;;5115116;28;20174;-78
2023/08/22 12:00:31;;;;;;;5.53;5.10;;;30.10;99.90;;;;;;5116079;28;20159;-79
2023/08/22 12:02:58;;;;;;;5.25;4.75;;;30.20;99.90;;;;;;5116953;28;20254;-78
2023/08/22 12:05:50;;;;;;;5.35;4.90;;;30.20;99.90;;;;;;5113665;28;20554;-79
2023/08/22 12:08:18;;;;;;;5.15;4.63;;;30.20;99.90;;;;;;5109925;28;20186;-79
2023/08/22 12:10:48;;;;;;;5.40;5.00;;;30.20;99.90;;;;;;5114064;28;20235;-78
2023/08/22 12:13:17;;;;;;;6.82;6.22;;;30.30;99.90;;;;;;5114150;28;20158;-79
2023/08/22 12:15:43;;;;;;;5.32;4.85;;;30.20;99.10;;;;;;5114029;28;20170;-78
2023/08/22 12:18:10;;;;;;;4.43;4.13;;;30.30;98.50;;;;;;5113460;28;20173;-78
2023/08/22 12:20:40;;;;;;;4.45;4.15;;;30.30;97.90;;;;;;5124989;28;20178;-77
2023/08/22 12:23:07;;;;;;;5.20;4.80;;;30.30;98.40;;;;;;5131688;28;20255;-78
2023/08/22 12:25:34;;;;;;;4.57;4.25;;;30.30;97.70;;;;;;5114908;28;20217;-79
2023/08/22 12:28:05;;;;;;;5.20;4.72;;;30.30;97.50;;;;;;5114068;28;20170;-78
2023/08/22 12:30:35;;;;;;;4.63;4.15;;;30.30;97.20;;;;;;5114401;28;20200;-78
2023/08/22 12:33:03;;;;;;;4.53;3.88;;;30.30;96.40;;;;;;5120883;28;20595;-79
2023/08/22 12:35:38;;;;;;;4.43;3.92;;;30.30;95.90;;;;;;5104218;28;20758;-79
2023/08/22 12:38:04;;;;;;;5.18;4.13;;;30.40;96.00;;;;;;5114191;28;20164;-78
2023/08/22 12:40:30;;;;;;;5.15;4.10;;;30.40;96.10;;;;;;5114070;28;20170;-79
2023/08/22 12:42:57;;;;;;;4.63;4.20;;;30.50;96.20;;;;;;5113678;28;20204;-79
2023/08/22 12:45:23;;;;;;;5.20;4.90;;;30.40;95.90;;;;;;5123848;28;20229;-77